createdAt,value
2022-12-23T00:02:21.007Z,98745.28
2022-12-23T00:04:48.018Z,98748.75
2022-12-23T00:07:15.002Z,98741.78
2022-12-23T00:09:41.936Z,98740.16
2022-12-23T00:12:27.291Z,98731.34
2022-12-23T00:15:05.918Z,98734.84
2022-12-23T00:17:45.077Z,98739.13
2022-12-23T00:20:14.712Z,98734.84
2022-12-23T00:22:59.945Z,98742.84
2022-12-23T00:25:42.205Z,98731.13
2022-12-23T00:28:18.856Z,98730.09
2022-12-23T00:31:04.652Z,98733.81
2022-12-23T00:33:38.981Z,98731.97
2022-12-23T00:36:29.275Z,98728.25
2022-12-23T00:39:16.594Z,98725.38
2022-12-23T00:42:02.358Z,98727.22
2022-12-23T00:44:29.324Z,98736.03
2022-12-23T00:46:56.292Z,98739.31
2022-12-23T00:49:42.004Z,98740.94
2022-12-23T00:52:12.942Z,98741.75
2022-12-23T00:54:40.082Z,98747.91
2022-12-23T00:57:07.004Z,98737.25
2022-12-23T00:59:34.316Z,98742.56
2022-12-23T01:02:20.102Z,98746.66
2022-12-23T01:05:05.591Z,98749.09
2022-12-23T01:07:32.497Z,98756.09
2022-12-23T01:09:59.439Z,98752.16
2022-12-23T01:12:26.356Z,98758.09
2022-12-23T01:14:53.288Z,98758.91
2022-12-23T01:17:20.562Z,98764.63
2022-12-23T01:19:47.535Z,98754.78
2022-12-23T01:22:14.476Z,98763.38
2022-12-23T01:24:41.392Z,98766.66
2022-12-23T01:27:08.320Z,98769.09
2022-12-23T01:29:35.243Z,98774.22
2022-12-23T01:32:02.283Z,98776.47
2022-12-23T01:34:36.169Z,98777.28
2022-12-23T01:37:04.112Z,98780.53
2022-12-23T01:39:31.011Z,98784.63
2022-12-23T01:42:16.334Z,98785.25
2022-12-23T01:45:16.598Z,98786.06
2022-12-23T01:47:56.080Z,98801.03
2022-12-23T01:50:46.493Z,98802.66
2022-12-23T01:53:22.865Z,98806.72
2022-12-23T01:56:21.279Z,98808.38
2022-12-23T01:58:53.572Z,98819.63
2022-12-23T02:01:40.049Z,98823.94
2022-12-23T02:04:13.286Z,98832.53
2022-12-23T02:07:02.189Z,98827.00
2022-12-23T02:09:32.051Z,98825.16
2022-12-23T02:12:42.401Z,98835.81
2022-12-23T02:15:50.934Z,98834.78
2022-12-23T02:18:55.712Z,98836.41
2022-12-23T02:21:33.190Z,98840.72
2022-12-23T02:24:29.366Z,98836.78
2022-12-23T02:27:30.417Z,98848.28
2022-12-23T02:30:25.046Z,98848.06
2022-12-23T02:33:04.653Z,98841.72
2022-12-23T02:35:59.589Z,98855.84
2022-12-23T02:38:42.880Z,98858.09
2022-12-23T02:41:34.724Z,98857.88
2022-12-23T02:44:29.856Z,98871.00
2022-12-23T02:47:08.526Z,98864.03
2022-12-23T02:49:40.934Z,98867.91
2022-12-23T02:52:14.193Z,98873.84
2022-12-23T02:54:50.076Z,98875.47
2022-12-23T02:57:24.610Z,98877.13
2022-12-23T02:59:52.828Z,98887.34
2022-12-23T03:02:20.072Z,98894.34
2022-12-23T03:04:47.076Z,98895.16
2022-12-23T03:07:26.777Z,98887.97
2022-12-23T03:10:17.912Z,98889.38
2022-12-23T03:13:03.817Z,98897.16
2022-12-23T03:15:42.762Z,98903.53
2022-12-23T03:18:39.152Z,98899.81
2022-12-23T03:21:17.782Z,98901.06
2022-12-23T03:24:10.467Z,98894.09
2022-12-23T03:26:49.731Z,98915.44
2022-12-23T03:29:37.984Z,98927.53
2022-12-23T03:32:06.767Z,98916.88
2022-12-23T03:34:40.322Z,98924.66
2022-12-23T03:37:10.689Z,98929.97
2022-12-23T03:39:46.969Z,98928.97
2022-12-23T03:42:22.861Z,98926.31
2022-12-23T03:45:19.626Z,98933.28
2022-12-23T03:47:54.675Z,98937.56
2022-12-23T03:50:23.901Z,98938.63
2022-12-23T03:53:01.160Z,98938.63
2022-12-23T03:55:34.409Z,98953.00
2022-12-23T03:58:37.440Z,98956.66
2022-12-23T04:01:20.064Z,98958.75
2022-12-23T04:04:01.481Z,98954.44
2022-12-23T04:06:35.999Z,98962.44
2022-12-23T04:09:04.974Z,98963.47
2022-12-23T04:11:34.061Z,98969.84
2022-12-23T04:14:01.055Z,98972.53
2022-12-23T04:16:29.561Z,98979.72
2022-12-23T04:18:56.523Z,98977.19
2022-12-23T04:21:23.413Z,98987.88
2022-12-23T04:23:50.340Z,98984.59
2022-12-23T04:26:17.262Z,98979.28
2022-12-23T04:28:44.246Z,98972.31
2022-12-23T04:31:11.222Z,98978.69
2022-12-23T04:33:38.174Z,98981.34
2022-12-23T04:36:05.558Z,98997.34
2022-12-23T04:38:32.446Z,99002.69
2022-12-23T04:40:59.366Z,99003.50
2022-12-23T04:43:26.304Z,98993.88
2022-12-23T04:45:53.243Z,99003.50
2022-12-23T04:48:20.167Z,99001.66
2022-12-23T04:50:47.294Z,99004.31
2022-12-23T04:53:14.224Z,99004.31
2022-12-23T04:55:41.151Z,98999.78
2022-12-23T04:58:08.078Z,99001.44
2022-12-23T05:00:39.558Z,99005.94
2022-12-23T05:03:07.401Z,99001.22
2022-12-23T05:05:34.439Z,98999.56
2022-12-23T05:08:06.623Z,98989.72
2022-12-23T05:10:33.587Z,98997.53
2022-12-23T05:13:00.639Z,99000.22
2022-12-23T05:15:27.601Z,98998.53
2022-12-23T05:17:54.512Z,98995.72
2022-12-23T05:20:21.420Z,99002.03
2022-12-23T05:22:48.321Z,99004.69
2022-12-23T05:25:15.288Z,99013.53
2022-12-23T05:27:42.188Z,99008.22
2022-12-23T05:30:09.951Z,99002.88
2022-12-23T05:32:36.911Z,99005.53
2022-12-23T05:35:03.991Z,99005.53
2022-12-23T05:37:30.919Z,99005.53
2022-12-23T05:39:57.839Z,99013.53
2022-12-23T05:42:24.853Z,99010.88
2022-12-23T05:44:51.752Z,99008.22
2022-12-23T05:47:18.651Z,99003.88
2022-12-23T05:49:45.536Z,99001.22
2022-12-23T05:52:12.543Z,99010.88
2022-12-23T05:54:39.461Z,99009.22
2022-12-23T05:57:06.392Z,99011.06
2022-12-23T05:59:33.312Z,99011.06
2022-12-23T06:02:00.566Z,99009.22
2022-12-23T06:04:27.727Z,99007.59
2022-12-23T06:06:54.670Z,99013.53
2022-12-23T06:09:21.579Z,99014.56
2022-12-23T06:11:48.617Z,99018.88
2022-12-23T06:14:15.593Z,99018.88
2022-12-23T06:16:42.601Z,99017.06
2022-12-23T06:19:09.666Z,99012.53
2022-12-23T06:21:36.677Z,99017.06
2022-12-23T06:24:03.858Z,99005.34
2022-12-23T06:26:30.814Z,99014.19
2022-12-23T06:28:57.726Z,99012.53
2022-12-23T06:31:24.660Z,99014.19
2022-12-23T06:33:51.600Z,99012.53
2022-12-23T06:36:18.511Z,99025.88
2022-12-23T06:38:45.427Z,99030.19
2022-12-23T06:41:12.742Z,99039.22
2022-12-23T06:43:39.663Z,99034.69
2022-12-23T06:46:06.690Z,99039.22
2022-12-23T06:48:33.962Z,99041.91
2022-12-23T06:51:00.945Z,99037.56
2022-12-23T06:53:27.870Z,99036.72
2022-12-23T06:56:02.984Z,99035.06
2022-12-23T06:58:30.355Z,99032.63
2022-12-23T07:00:57.372Z,99041.66
2022-12-23T07:03:24.417Z,99040.03
2022-12-23T07:05:52.479Z,99037.56
2022-12-23T07:08:19.742Z,99045.78
2022-12-23T07:10:46.734Z,99038.00
2022-12-23T07:13:13.651Z,99040.88
2022-12-23T07:15:40.615Z,99041.09
2022-12-23T07:18:07.799Z,99037.56
2022-12-23T07:20:34.784Z,99039.44
2022-12-23T07:23:01.761Z,99043.94
2022-12-23T07:25:28.763Z,99044.97
2022-12-23T07:27:56.395Z,99033.50
2022-12-23T07:30:23.889Z,99021.19
2022-12-23T07:32:52.065Z,99032.69
2022-12-23T07:35:19.243Z,99027.34
2022-12-23T07:37:50.410Z,99027.34
2022-12-23T07:40:17.722Z,99020.38
2022-12-23T07:42:46.622Z,99014.00
2022-12-23T07:45:14.137Z,99021.78
2022-12-23T07:47:41.431Z,99035.94
2022-12-23T07:50:09.063Z,99055.25
2022-12-23T07:52:35.994Z,99067.56
2022-12-23T07:55:03.070Z,99070.00
2022-12-23T07:57:30.072Z,99067.75
2022-12-23T07:59:57.036Z,99058.72
2022-12-23T08:02:25.114Z,99057.69
2022-12-23T08:04:52.511Z,99052.13
2022-12-23T08:07:19.552Z,99054.56
2022-12-23T08:09:46.493Z,99056.25
2022-12-23T08:12:13.429Z,99051.53
2022-12-23T08:14:40.334Z,99049.47
2022-12-23T08:17:07.356Z,99049.25
2022-12-23T08:19:34.302Z,99046.38
2022-12-23T08:22:01.319Z,99059.28
2022-12-23T08:24:28.260Z,99063.59
2022-12-23T08:26:55.302Z,99063.19
2022-12-23T08:29:22.371Z,99057.63
2022-12-23T08:31:50.432Z,99065.41
2022-12-23T08:34:19.214Z,99055.34
2022-12-23T08:36:46.186Z,99047.97
2022-12-23T08:39:13.463Z,99047.75
2022-12-23T08:41:45.285Z,99043.81
2022-12-23T08:44:12.718Z,99055.13
2022-12-23T08:46:40.068Z,99058.38
2022-12-23T08:49:08.558Z,99063.28
2022-12-23T08:51:37.258Z,99060.44
2022-12-23T08:54:05.136Z,99066.16
2022-12-23T08:56:36.058Z,99067.78
2022-12-23T08:59:03.903Z,99065.72
2022-12-23T09:01:34.050Z,99055.06
2022-12-23T09:04:06.445Z,99059.13
2022-12-23T09:06:38.307Z,99063.22
2022-12-23T09:09:06.143Z,99069.78
2022-12-23T09:11:33.995Z,99074.91
2022-12-23T09:14:01.760Z,99079.00
2022-12-23T09:16:29.867Z,99075.31
2022-12-23T09:18:57.317Z,99070.34
2022-12-23T09:21:25.053Z,99064.59
2022-12-23T09:23:52.053Z,99062.28
2022-12-23T09:26:26.086Z,99069.25
2022-12-23T09:28:53.678Z,99066.19
2022-12-23T09:31:21.418Z,99066.78
2022-12-23T09:33:50.705Z,99073.53
2022-12-23T09:36:18.791Z,99068.00
2022-12-23T09:38:46.221Z,99063.25
2022-12-23T09:41:39.971Z,99063.84
2022-12-23T09:44:33.298Z,99063.41
2022-12-23T09:47:05.637Z,99053.53
2022-12-23T09:49:33.736Z,99055.19
2022-12-23T09:52:06.430Z,99048.78
2022-12-23T09:54:48.331Z,99045.91
2022-12-23T09:57:46.502Z,99044.91
2022-12-23T10:00:16.648Z,99044.03
2022-12-23T10:03:08.470Z,99043.84
2022-12-23T10:06:01.643Z,99040.94
2022-12-23T10:08:39.661Z,99035.38
2022-12-23T10:11:23.477Z,99033.31
2022-12-23T10:14:29.507Z,99021.59
2022-12-23T10:17:10.827Z,99026.72
2022-12-23T10:19:46.253Z,99030.22
2022-12-23T10:22:24.950Z,99027.31
2022-12-23T10:24:53.786Z,99019.06
2022-12-23T10:27:41.948Z,99018.06
2022-12-23T10:30:51.371Z,99017.84
2022-12-23T10:33:21.954Z,99016.81
2022-12-23T10:36:27.850Z,99007.75
2022-12-23T10:39:42.319Z,99000.53
2022-12-23T10:42:23.129Z,98994.16
2022-12-23T10:45:02.652Z,98995.19
2022-12-23T10:48:11.998Z,99006.47
2022-12-23T10:51:03.384Z,99002.16
2022-12-23T10:53:46.616Z,98991.47
2022-12-23T10:56:14.714Z,98988.00
2022-12-23T10:58:45.816Z,98988.81
2022-12-23T11:01:24.115Z,98978.94
2022-12-23T11:04:17.844Z,98979.75
2022-12-23T11:07:10.639Z,98984.09
2022-12-23T11:09:52.955Z,98979.75
2022-12-23T11:12:24.614Z,98964.56
2022-12-23T11:14:56.519Z,98967.41
2022-12-23T11:17:29.108Z,98968.47
2022-12-23T11:20:16.456Z,98964.75
2022-12-23T11:23:06.575Z,98959.41
2022-12-23T11:25:43.789Z,98946.50
2022-12-23T11:28:10.602Z,98936.84
2022-12-23T11:31:05.432Z,98929.66
2022-12-23T11:33:37.727Z,98927.19
2022-12-23T11:36:25.046Z,98912.19
2022-12-23T11:39:14.682Z,98909.50
2022-12-23T11:41:48.767Z,98904.97
2022-12-23T11:44:44.067Z,98890.00
2022-12-23T11:47:31.913Z,98891.41
2022-12-23T11:50:03.101Z,98875.38
2022-12-23T11:52:33.343Z,98884.44
2022-12-23T11:55:05.670Z,98875.16
2022-12-23T11:57:46.306Z,98876.78
2022-12-23T12:00:25.040Z,98873.06
2022-12-23T12:02:58.596Z,98871.22
2022-12-23T12:05:48.333Z,98873.69
2022-12-23T12:08:23.314Z,98869.16
2022-12-23T12:10:53.650Z,98864.63
2022-12-23T12:13:32.337Z,98852.88
2022-12-23T12:16:41.239Z,98843.00
2022-12-23T12:19:16.615Z,98852.66
2022-12-23T12:21:45.868Z,98846.88
2022-12-23T12:24:31.835Z,98834.31
2022-12-23T12:27:04.903Z,98825.03
2022-12-23T12:29:55.919Z,98815.97
2022-12-23T12:32:46.733Z,98820.28
2022-12-23T12:35:37.662Z,98812.88
2022-12-23T12:38:12.987Z,98807.50
2022-12-23T12:40:52.079Z,98809.16
2022-12-23T12:43:32.380Z,98800.66
2022-12-23T12:46:40.921Z,98799.63
2022-12-23T12:49:22.755Z,98791.16
2022-12-23T12:52:04.729Z,98782.91
2022-12-23T12:54:39.677Z,98774.66
2022-12-23T12:57:14.391Z,98777.94
2022-12-23T12:59:42.962Z,98756.31
2022-12-23T13:02:49.349Z,98759.78
2022-12-23T13:05:24.634Z,98757.69
2022-12-23T13:08:26.379Z,98756.66
2022-12-23T13:11:28.383Z,98754.78
2022-12-23T13:14:53.051Z,98755.41
2022-12-23T13:17:29.590Z,98755.16
2022-12-23T13:20:34.937Z,98750.63
2022-12-23T13:23:41.715Z,98747.72
2022-12-23T13:26:29.823Z,98743.19
2022-12-23T13:29:29.630Z,98743.19
2022-12-23T13:32:20.395Z,98735.97
2022-12-23T13:35:07.772Z,98734.97
2022-12-23T13:38:04.139Z,98731.00
2022-12-23T13:40:55.042Z,98721.13
2022-12-23T13:43:39.356Z,98723.31
2022-12-23T13:46:29.868Z,98719.63
2022-12-23T13:49:20.233Z,98715.91
2022-12-23T13:52:23.941Z,98713.84
2022-12-23T13:55:27.061Z,98702.69
2022-12-23T13:58:18.827Z,98703.28
2022-12-23T14:00:46.308Z,98691.53
2022-12-23T14:03:24.553Z,98707.09
2022-12-23T14:05:53.261Z,98698.88
2022-12-23T14:08:20.192Z,98708.28
2022-12-23T14:11:00.067Z,98695.47
2022-12-23T14:13:45.762Z,98694.44
2022-12-23T14:17:06.578Z,98696.66
2022-12-23T14:20:15.296Z,98695.38
2022-12-23T14:23:07.574Z,98697.00
2022-12-23T14:26:01.884Z,98704.81
2022-12-23T14:29:11.621Z,98697.34
2022-12-23T14:31:47.695Z,98698.97
2022-12-23T14:34:17.618Z,98707.56
2022-12-23T14:37:21.833Z,98709.22
2022-12-23T14:39:50.337Z,98694.81
2022-12-23T14:42:49.789Z,98706.09
2022-12-23T14:45:42.217Z,98702.34
2022-12-23T14:48:34.301Z,98692.25
2022-12-23T14:51:08.404Z,98695.50
2022-12-23T14:53:57.865Z,98697.13
2022-12-23T14:57:05.333Z,98700.38
2022-12-23T14:59:56.777Z,98698.31
2022-12-23T15:02:36.876Z,98699.94
2022-12-23T15:05:04.955Z,98699.44
2022-12-23T15:07:39.134Z,98688.75
2022-12-23T15:10:22.196Z,98697.38
2022-12-23T15:12:57.534Z,98695.25
2022-12-23T15:15:28.213Z,98687.81
2022-12-23T15:18:07.355Z,98691.28
2022-12-23T15:20:35.123Z,98688.38
2022-12-23T15:23:09.435Z,98690.59
2022-12-23T15:25:47.638Z,98693.03
2022-12-23T15:28:22.694Z,98688.50
2022-12-23T15:30:54.289Z,98697.13
2022-12-23T15:36:19.243Z,98691.78
2022-12-23T15:38:46.902Z,98708.41
2022-12-23T15:41:17.061Z,98697.69
2022-12-23T15:43:45.022Z,98697.47
2022-12-23T15:46:29.098Z,98703.63
2022-12-23T15:48:57.576Z,98700.94
2022-12-23T15:54:31.262Z,98710.03
2022-12-23T15:57:01.001Z,98710.03
2022-12-23T15:59:34.931Z,98713.53
2022-12-23T16:05:43.049Z,98711.09
2022-12-23T16:08:23.051Z,98715.63
2022-12-23T16:11:18.694Z,98711.09
2022-12-23T16:14:20.186Z,98724.00
2022-12-23T16:16:47.402Z,98714.59
2022-12-23T16:19:53.549Z,98727.72
2022-12-23T16:22:20.410Z,98724.25
2022-12-23T16:24:53.337Z,98722.38
2022-12-23T16:27:50.235Z,98717.00
2022-12-23T16:30:33.470Z,98725.06
2022-12-23T16:33:07.116Z,98730.41
2022-12-23T16:35:42.988Z,98737.63
2022-12-23T16:38:15.663Z,98719.69
2022-12-23T16:40:54.096Z,98726.69
2022-12-23T16:43:23.642Z,98727.47
2022-12-23T16:45:55.293Z,98737.38
2022-12-23T16:48:39.251Z,98748.09
2022-12-23T16:51:12.539Z,98740.06
2022-12-23T16:53:39.684Z,98748.09
2022-12-23T16:56:14.823Z,98752.63
2022-12-23T16:58:42.274Z,98753.69
2022-12-23T17:01:30.327Z,98751.81
2022-12-23T17:03:57.290Z,98748.09
2022-12-23T17:06:25.001Z,98755.06
2022-12-23T17:08:53.188Z,98774.06
2022-12-23T17:11:24.397Z,98757.19
2022-12-23T17:13:51.605Z,98763.34
2022-12-23T17:16:24.376Z,98758.00
2022-12-23T17:18:53.269Z,98765.78
2022-12-23T17:21:30.136Z,98769.53
2022-12-23T17:24:09.839Z,98769.31
2022-12-23T17:26:37.538Z,98776.50
2022-12-23T17:29:05.828Z,98777.34
2022-12-23T17:31:34.139Z,98770.94
2022-12-23T17:34:01.927Z,98777.34
2022-12-23T17:36:29.704Z,98782.69
2022-12-23T17:38:56.720Z,98793.41
2022-12-23T17:41:29.400Z,98799.56
2022-12-23T17:43:56.742Z,98802.25
2022-12-23T17:46:24.941Z,98804.94
2022-12-23T17:48:52.485Z,98802.47
2022-12-23T17:51:22.631Z,98801.66
2022-12-23T17:53:57.431Z,98803.75
2022-12-23T17:56:27.987Z,98809.91
2022-12-23T17:58:55.167Z,98819.00
2022-12-23T18:01:29.787Z,98814.94
2022-12-23T18:03:59.492Z,98822.97
2022-12-23T18:06:30.105Z,98819.44
2022-12-23T18:08:57.869Z,98824.00
2022-12-23T18:11:37.824Z,98828.78
2022-12-23T18:14:04.795Z,98840.53
2022-12-23T18:16:31.890Z,98825.53
2022-12-23T18:18:58.868Z,98814.00
2022-12-23T18:21:28.116Z,98814.22
2022-12-23T18:23:58.658Z,98817.94
2022-12-23T18:26:26.106Z,98817.13
2022-12-23T18:28:54.103Z,98830.75
2022-12-23T18:31:24.278Z,98823.75
2022-12-23T18:33:52.073Z,98824.81
2022-12-23T18:36:33.131Z,98820.50
2022-12-23T18:39:00.280Z,98827.94
2022-12-23T18:41:27.949Z,98820.97
2022-12-23T18:43:55.315Z,98832.47
2022-12-23T18:46:22.624Z,98821.19
2022-12-23T18:48:49.810Z,98839.94
2022-12-23T18:51:20.096Z,98843.66
2022-12-23T18:53:48.070Z,98851.91
2022-12-23T18:56:19.050Z,98854.56
2022-12-23T18:58:45.970Z,98860.97
2022-12-23T19:01:15.014Z,98866.31
2022-12-23T19:03:42.965Z,98883.44
2022-12-23T19:06:13.272Z,98879.13
2022-12-23T19:08:41.384Z,98890.88
2022-12-23T19:11:14.660Z,98883.09
2022-12-23T19:13:41.591Z,98891.31
2022-12-23T19:16:15.055Z,98886.44
2022-12-23T19:18:42.220Z,98894.47
2022-12-23T19:21:09.428Z,98898.44
2022-12-23T19:23:37.118Z,98905.63
2022-12-23T19:26:06.029Z,98899.09
2022-12-23T19:28:33.635Z,98906.53
2022-12-23T19:31:00.632Z,98919.31
2022-12-23T19:33:27.583Z,98909.06
2022-12-23T19:35:54.558Z,98923.50
2022-12-23T19:38:21.464Z,98918.59
2022-12-23T19:40:57.645Z,98923.34
2022-12-23T19:43:24.604Z,98928.94
2022-12-23T19:46:04.148Z,98914.13
2022-12-23T19:48:31.387Z,98922.16
2022-12-23T19:51:12.132Z,98937.41
2022-12-23T19:53:40.882Z,98944.03
2022-12-23T19:56:14.659Z,98946.94
2022-12-23T19:58:43.857Z,98955.16
2022-12-23T20:01:25.880Z,98953.53
2022-12-23T20:03:55.500Z,98951.91
2022-12-23T20:06:38.291Z,98949.66
2022-12-23T20:09:07.807Z,98972.28
2022-12-23T20:11:43.567Z,98960.44
2022-12-23T20:14:12.264Z,98959.22
2022-12-23T20:16:41.308Z,98976.97
2022-12-23T20:19:08.664Z,98982.84
2022-12-23T20:21:37.236Z,98986.81
2022-12-23T20:24:05.895Z,98990.59
2022-12-23T20:26:33.551Z,99001.34
2022-12-23T20:29:00.491Z,99032.25
2022-12-23T20:31:30.711Z,99034.75
2022-12-23T20:33:58.115Z,99054.09
2022-12-23T20:36:29.444Z,99059.25
2022-12-23T20:38:56.853Z,99052.72
2022-12-23T20:41:28.116Z,99056.44
2022-12-23T20:46:42.689Z,99046.63
2022-12-23T20:49:09.635Z,99046.22
2022-12-23T20:51:36.549Z,99057.72
2022-12-23T20:54:03.493Z,99055.50
2022-12-23T20:56:31.462Z,99058.38
2022-12-23T20:58:59.401Z,99065.59
2022-12-23T21:01:39.246Z,99063.91
2022-12-23T21:04:16.616Z,99066.81
2022-12-23T21:06:44.512Z,99071.34
2022-12-23T21:09:14.479Z,99069.69
2022-12-23T21:11:44.748Z,99078.97
2022-12-23T21:14:12.592Z,99078.13
2022-12-23T21:16:40.574Z,99083.47
2022-12-23T21:19:13.565Z,99082.88
2022-12-23T21:21:40.544Z,99077.53
2022-12-23T21:24:07.769Z,99091.94
2022-12-23T21:26:35.771Z,99089.25
2022-12-23T21:29:05.441Z,99088.03
2022-12-23T21:31:35.442Z,99101.81
2022-12-23T21:34:03.274Z,99115.41
2022-12-23T21:36:34.282Z,99125.25
2022-12-23T21:39:01.944Z,99131.00
2022-12-23T21:41:33.958Z,99120.53
2022-12-23T21:44:01.221Z,99133.50
2022-12-23T21:46:29.354Z,99131.03
2022-12-23T21:48:58.240Z,99133.09
2022-12-23T21:51:40.289Z,99129.84
2022-12-23T21:54:10.370Z,99138.03
2022-12-23T21:56:38.133Z,99141.97
2022-12-23T21:59:13.360Z,99152.03
2022-12-23T22:01:41.961Z,99147.50
2022-12-23T22:04:08.989Z,99148.53
2022-12-23T22:06:40.230Z,99145.25
2022-12-23T22:09:07.983Z,99148.94
2022-12-23T22:11:36.654Z,99159.84
2022-12-23T22:14:07.707Z,99152.88
2022-12-23T22:16:35.895Z,99161.09
2022-12-23T22:19:04.340Z,99157.78
2022-12-23T22:21:33.440Z,99166.84
2022-12-23T22:24:00.837Z,99179.56
2022-12-23T22:26:31.502Z,99174.25
2022-12-23T22:29:03.842Z,99174.47
2022-12-23T22:31:48.375Z,99172.59
2022-12-23T22:34:19.592Z,99170.13
2022-12-23T22:36:47.658Z,99162.94
2022-12-23T22:39:21.077Z,99176.28
2022-12-23T22:41:52.663Z,99178.13
2022-12-23T22:44:20.476Z,99186.94
2022-12-23T22:46:47.731Z,99186.34
2022-12-23T22:49:15.594Z,99188.19
2022-12-23T22:51:43.615Z,99191.09
2022-12-23T22:54:10.705Z,99172.00
2022-12-23T22:56:37.900Z,99158.88
2022-12-23T22:59:05.011Z,99161.97
2022-12-23T23:01:35.615Z,99178.13
2022-12-23T23:04:04.189Z,99163.38
2022-12-23T23:06:38.246Z,99160.09
2022-12-23T23:09:13.509Z,99196.00
2022-12-23T23:11:41.105Z,99171.16
2022-12-23T23:14:08.041Z,99168.94
2022-12-23T23:16:35.133Z,99186.78
2022-12-23T23:19:05.226Z,99202.16
2022-12-23T23:21:32.487Z,99213.03
2022-12-23T23:23:59.518Z,99199.47
2022-12-23T23:26:27.310Z,99225.34
2022-12-23T23:28:55.615Z,99225.34
2022-12-23T23:34:09.642Z,99233.97
2022-12-23T23:36:36.605Z,99246.28
2022-12-23T23:39:03.724Z,99253.25
2022-12-23T23:41:30.688Z,99267.41
2022-12-23T23:43:57.595Z,99266.59
2022-12-23T23:46:24.635Z,99271.94
2022-12-23T23:48:51.677Z,99277.28
2022-12-23T23:51:18.593Z,99269.25
2022-12-23T23:53:45.521Z,99278.09
2022-12-23T23:56:12.483Z,99277.28
2022-12-23T23:58:39.473Z,99277.28
